Time;durP1;ratioP1;P1;durP2;ratioP2;P2;SDS_P1;SDS_P2;PMS_P1;PMS_P2;Temp;Humidity;BMP_temperature;BMP_pressure;BME280_temperature;BME280_humidity;BME280_pressure;Samples;Min_cycle;Max_cycle;Signal;HPM_P1;HPM_P2
2022/12/12 00:00:08;;;;;;;57.60;23.58;;;;;;;1.15;64.43;98494.34;5149485;28;20448;-70
2022/12/12 00:03:03;;;;;;;57.25;23.52;;;;;;;1.24;64.72;98489.47;5166371;22;20159;-72
2022/12/12 00:05:54;;;;;;;61.42;23.67;;;;;;;1.27;64.68;98492.72;5130478;28;20066;-72
2022/12/12 00:08:44;;;;;;;56.92;22.27;;;;;;;1.32;65.79;98495.03;5138771;28;20608;-72
2022/12/12 00:11:35;;;;;;;57.17;22.85;;;;;;;1.24;65.29;98500.75;5137884;28;20058;-72
2022/12/12 00:14:25;;;;;;;58.28;23.45;;;;;;;1.26;64.86;98498.91;5141077;28;20058;-72
2022/12/12 00:17:15;;;;;;;59.70;23.00;;;;;;;1.14;64.69;98503.09;5143603;28;20057;-71
2022/12/12 00:20:05;;;;;;;60.70;24.67;;;;;;;1.36;64.34;98497.38;5128667;28;20057;-72
2022/12/12 00:22:56;;;;;;;61.55;24.70;;;;;;;1.18;64.72;98482.84;5131846;28;20066;-71
2022/12/12 00:25:53;;;;;;;62.10;25.20;;;;;;;1.27;64.90;98499.72;5142980;28;20046;-71
2022/12/12 00:28:43;;;;;;;56.28;24.00;;;;;;;1.25;65.29;98497.19;5143379;28;20058;-72
2022/12/12 00:31:34;;;;;;;63.95;24.80;;;;;;;1.23;64.81;98490.41;5142158;28;20053;-71
2022/12/12 00:34:25;;;;;;;64.55;24.75;;;;;;;1.29;64.01;98496.09;5149023;28;20197;-72
2022/12/12 00:37:15;;;;;;;62.75;24.38;;;;;;;1.24;64.18;98497.31;5140979;28;20055;-72
2022/12/12 00:40:06;;;;;;;56.70;23.63;;;;;;;1.20;64.66;98491.44;5141640;28;20123;-71
2022/12/12 00:42:56;;;;;;;64.25;25.00;;;;;;;1.24;64.87;98498.16;5131956;28;20635;-72
2022/12/12 00:45:46;;;;;;;63.30;25.40;;;;;;;1.24;65.27;98498.16;5142978;28;20047;-71
2022/12/12 00:48:36;;;;;;;65.40;24.92;;;;;;;1.27;64.16;98484.88;5142734;28;20053;-71
2022/12/12 00:51:28;;;;;;;64.15;25.15;;;;;;;1.25;64.32;98499.81;5141514;28;20181;-71
2022/12/12 00:54:18;;;;;;;67.05;25.52;;;;;;;1.30;64.19;98494.31;5140636;28;20559;-73
2022/12/12 00:57:08;;;;;;;64.05;25.60;;;;;;;1.35;64.58;98494.84;5142630;28;20061;-72
2022/12/12 00:59:58;;;;;;;64.43;25.63;;;;;;;1.18;64.99;98481.09;5130156;28;20043;-73
2022/12/12 01:02:48;;;;;;;58.25;24.42;;;;;;;1.23;64.69;98491.25;5142820;28;20428;-73
2022/12/12 01:05:38;;;;;;;66.03;24.70;;;;;;;0.87;66.15;98476.13;5128576;28;20129;-72
2022/12/12 01:08:28;;;;;;;59.67;24.73;;;;;;;1.03;65.87;98494.28;5135293;28;20087;-72
2022/12/12 01:11:19;;;;;;;62.65;25.77;;;;;;;1.01;66.24;98501.38;5140571;28;20098;-73
2022/12/12 01:14:09;;;;;;;64.88;26.35;;;;;;;1.04;66.28;98498.56;5136155;28;20046;-72
2022/12/12 01:16:59;;;;;;;67.25;25.33;;;;;;;1.11;65.54;98497.25;5141061;28;20162;-73
2022/12/12 01:19:50;;;;;;;61.97;25.40;;;;;;;1.15;66.14;98504.78;5129534;28;20066;-72
2022/12/12 01:22:40;;;;;;;63.72;25.80;;;;;;;1.22;65.60;98504.41;5135633;28;20137;-72
2022/12/12 01:25:29;;;;;;;63.25;25.35;;;;;;;1.04;65.85;98509.84;5142446;28;20049;-72
2022/12/12 01:28:19;;;;;;;64.55;26.00;;;;;;;1.14;66.24;98505.72;5135897;28;20062;-71
2022/12/12 01:31:11;;;;;;;60.88;24.88;;;;;;;0.93;66.05;98489.63;5137738;28;20054;-72
2022/12/12 01:34:01;;;;;;;72.05;27.80;;;;;;;1.05;65.01;98510.69;5135099;28;20516;-72
2022/12/12 01:36:51;;;;;;;65.43;26.08;;;;;;;0.98;64.67;98507.63;5141003;28;20117;-73
2022/12/12 01:39:41;;;;;;;57.40;24.15;;;;;;;0.99;65.85;98503.22;5131621;28;20046;-72
2022/12/12 01:42:32;;;;;;;63.63;25.60;;;;;;;0.93;65.84;98488.81;5141303;28;20058;-72
2022/12/12 01:46:11;;;;;;;62.05;25.23;;;;;;;1.08;65.47;98505.28;5141371;28;20069;-74
2022/12/12 01:49:12;;;;;;;70.05;26.17;;;;;;;0.92;65.69;98508.81;5124966;28;20070;-71
2022/12/12 01:52:09;;;;;;;60.38;24.02;;;;;;;0.82;65.83;98506.88;5128458;28;20604;-73
2022/12/12 01:55:03;;;;;;;64.80;25.23;;;;;;;0.73;65.45;98517.88;5142006;28;20082;-72
2022/12/12 01:57:53;;;;;;;;;;;;;;;0.58;65.47;98517.06;5128005;28;20120;-71
2022/12/12 02:00:44;;;;;;;61.20;23.45;;;;;;;0.45;65.80;98509.97;5152798;28;19932;-72
2022/12/12 02:03:36;;;;;;;65.25;23.67;;;;;;;0.29;65.11;98511.81;5141495;28;20086;-72
2022/12/12 02:06:27;;;;;;;60.00;25.42;;;;;;;0.31;64.71;98522.16;5141719;28;20057;-73
2022/12/12 02:09:19;;;;;;;69.97;26.38;;;;;;;0.19;65.84;98529.78;5131324;28;20062;-71
2022/12/12 02:12:13;;;;;;;63.22;25.38;;;;;;;0.28;66.06;98519.75;5141017;28;20078;-70
2022/12/12 02:15:06;;;;;;;60.05;25.42;;;;;;;0.20;65.86;98507.16;5141488;28;20055;-71
2022/12/12 02:18:10;;;;;;;63.63;25.52;;;;;;;0.18;65.73;98509.00;5129293;28;20201;-71
2022/12/12 02:21:34;;;;;;;63.53;24.88;;;;;;;0.27;66.00;98525.91;5142539;28;20061;-71
2022/12/12 02:24:59;;;;;;;63.10;24.95;;;;;;;0.22;66.64;98523.53;5141848;28;20144;-70
2022/12/12 02:28:13;;;;;;;71.97;25.65;;;;;;;0.18;66.65;98529.88;5131877;28;20437;-71
2022/12/12 02:31:31;;;;;;;62.90;24.48;;;;;;;0.09;66.33;98528.63;5142477;28;20081;-71
2022/12/12 02:34:39;;;;;;;64.93;25.45;;;;;;;-0.04;66.42;98523.28;5145477;28;20051;-71
2022/12/12 02:38:04;;;;;;;59.92;22.88;;;;;;;-0.08;66.80;98524.41;5132359;28;20054;-71
2022/12/12 02:41:14;;;;;;;66.90;25.75;;;;;;;-0.05;66.52;98526.84;5140521;28;20058;-71
2022/12/12 02:44:07;;;;;;;67.97;24.83;;;;;;;0.08;66.78;98526.13;5145167;28;20054;-71
2022/12/12 02:47:13;;;;;;;68.68;25.20;;;;;;;0.05;66.62;98524.53;5143861;28;20054;-71
2022/12/12 02:50:15;;;;;;;58.45;23.77;;;;;;;0.01;67.20;98532.63;5138868;28;20097;-71
2022/12/12 02:53:05;;;;;;;64.75;23.50;;;;;;;0.11;66.94;98537.22;5130491;28;20077;-71
2022/12/12 02:56:26;;;;;;;62.05;23.55;;;;;;;0.09;66.70;98538.22;5144701;28;20057;-71
2022/12/12 02:59:40;;;;;;;63.15;23.85;;;;;;;-0.11;66.34;98548.03;5134968;28;20125;-71
2022/12/12 03:02:39;;;;;;;57.30;23.23;;;;;;;-0.18;67.16;98541.50;5143828;28;20420;-70
2022/12/12 03:09:20;;;;;;;59.80;24.20;;;;;;;-0.27;66.50;98542.00;5140997;28;20181;-71
2022/12/12 03:12:25;;;;;;;67.72;24.65;;;;;;;-0.38;67.02;98523.56;5143649;28;20569;-70
2022/12/12 03:15:24;;;;;;;61.15;23.95;;;;;;;-0.35;67.14;98539.00;5131347;28;20058;-71
2022/12/12 03:18:33;;;;;;;69.18;26.83;;;;;;;-0.38;67.42;98533.97;5139291;28;20129;-70
2022/12/12 03:21:38;;;;;;;66.80;24.88;;;;;;;-0.52;67.10;98526.94;5130692;28;20077;-70
2022/12/12 03:24:43;;;;;;;71.57;25.75;;;;;;;-0.41;66.56;98534.97;5142820;28;20141;-70
2022/12/12 03:27:43;;;;;;;73.15;26.17;;;;;;;-0.45;67.40;98533.47;5132585;28;20197;-72
2022/12/12 03:30:41;;;;;;;71.70;27.02;;;;;;;-0.47;66.90;98536.16;5140175;28;20410;-70
2022/12/12 03:33:38;;;;;;;73.57;26.40;;;;;;;-0.44;66.47;98534.31;5144644;28;20157;-72
2022/12/12 03:36:54;;;;;;;64.47;25.63;;;;;;;-0.55;67.08;98527.13;5144137;28;20061;-71
2022/12/12 03:40:02;;;;;;;69.78;25.92;;;;;;;-0.57;66.48;98535.00;5133831;28;20074;-71
2022/12/12 03:43:02;;;;;;;69.60;26.42;;;;;;;-0.56;68.49;98535.84;5142306;28;20058;-70
2022/12/12 03:46:16;;;;;;;73.10;25.77;;;;;;;-0.50;67.56;98538.97;5143718;28;20145;-70
2022/12/12 03:49:14;;;;;;;65.97;25.42;;;;;;;-0.54;66.95;98541.81;5142962;28;20133;-71
2022/12/12 03:52:11;;;;;;;66.20;25.40;;;;;;;-0.55;67.42;98535.75;5135020;28;20058;-70
2022/12/12 03:55:13;;;;;;;71.60;27.17;;;;;;;-0.52;68.23;98532.16;5142765;28;20802;-71
2022/12/12 03:58:16;;;;;;;71.05;25.52;;;;;;;-0.42;67.24;98532.47;5143302;28;20551;-71
2022/12/12 04:01:10;;;;;;;65.05;24.33;;;;;;;-0.39;66.97;98538.34;5132075;28;20454;-71
2022/12/12 04:04:48;;;;;;;69.18;27.05;;;;;;;-0.37;67.58;98539.09;5143804;28;20061;-70
2022/12/12 04:07:45;;;;;;;71.55;27.10;;;;;;;-0.56;68.23;98531.50;5142223;28;20086;-71
2022/12/12 04:14:25;;;;;;;63.00;25.02;;;;;;;-0.31;67.77;98540.50;5143330;28;20125;-70
2022/12/12 04:17:20;;;;;;;66.90;25.45;;;;;;;-0.07;67.61;98548.69;5132173;28;20050;-70
2022/12/12 04:23:51;;;;;;;67.68;26.00;;;;;;;-0.14;66.39;98552.56;5143433;28;20050;-70
2022/12/12 04:26:47;;;;;;;69.10;26.35;;;;;;;-0.14;68.03;98550.81;5136832;28;20046;-71
2022/12/12 04:29:40;;;;;;;70.10;27.33;;;;;;;-0.05;67.16;98552.91;5134367;28;20625;-71
2022/12/12 04:32:42;;;;;;;68.72;26.17;;;;;;;-0.07;67.19;98554.72;5129286;28;20082;-71
2022/12/12 04:35:38;;;;;;;75.03;28.27;;;;;;;-0.04;67.50;98556.34;5135431;28;20520;-70
2022/12/12 04:38:29;;;;;;;78.28;27.65;;;;;;;-0.09;67.63;98554.00;5139963;28;20081;-71
2022/12/12 04:41:21;;;;;;;81.85;29.10;;;;;;;-0.02;66.51;98560.53;5141299;28;20573;-70
2022/12/12 04:44:12;;;;;;;73.68;27.75;;;;;;;-0.09;67.04;98556.59;5142896;28;20128;-70
2022/12/12 04:47:05;;;;;;;77.22;26.77;;;;;;;0.02;67.76;98569.03;5142837;28;20061;-71
2022/12/12 04:49:56;;;;;;;75.80;27.35;;;;;;;-0.43;68.53;98575.06;5140909;28;20063;-71
2022/12/12 04:52:48;;;;;;;65.78;25.88;;;;;;;-0.19;68.11;98565.88;5139328;28;20125;-71
2022/12/12 04:55:42;;;;;;;70.88;27.02;;;;;;;-0.12;67.62;98561.16;5141766;28;20676;-71
2022/12/12 04:58:33;;;;;;;72.45;26.17;;;;;;;-0.14;67.48;98563.00;5137781;28;20093;-70
2022/12/12 05:01:37;;;;;;;80.18;29.52;;;;;;;-0.11;67.36;98574.09;5152252;28;20527;-70
2022/12/12 05:04:39;;;;;;;68.70;26.30;;;;;;;-0.15;67.49;98556.97;5142282;28;20059;-73
2022/12/12 05:07:32;;;;;;;70.43;27.60;;;;;;;0.01;67.15;98575.16;5142179;28;20062;-71
2022/12/12 05:10:29;;;;;;;73.13;28.08;;;;;;;0.18;67.44;98568.97;5153205;28;20097;-70
2022/12/12 05:13:26;;;;;;;73.65;27.00;;;;;;;0.26;66.73;98582.41;5142195;28;20051;-71
2022/12/12 05:16:22;;;;;;;76.22;28.45;;;;;;;0.14;66.89;98586.56;5141940;28;20697;-71
2022/12/12 05:19:13;;;;;;;75.53;28.42;;;;;;;0.04;67.09;98585.41;5136173;28;20679;-70
2022/12/12 05:22:03;;;;;;;70.60;27.77;;;;;;;0.17;67.56;98578.56;5140052;28;20054;-71
2022/12/12 05:24:53;;;;;;;73.20;28.88;;;;;;;0.08;67.14;98578.25;5141125;28;20066;-71
2022/12/12 05:27:43;;;;;;;67.60;26.83;;;;;;;0.19;67.35;98591.50;5140124;28;20517;-71
2022/12/12 05:30:33;;;;;;;72.63;27.17;;;;;;;0.02;67.47;98583.81;5125527;28;20057;-70
2022/12/12 05:33:23;;;;;;;74.20;28.52;;;;;;;0.06;67.09;98591.38;5132511;28;20058;-72
2022/12/12 05:36:14;;;;;;;78.72;29.00;;;;;;;0.12;67.38;98590.19;5136084;28;20057;-69
2022/12/12 05:39:04;;;;;;;71.40;27.33;;;;;;;0.15;66.76;98597.84;5137765;28;20579;-71
2022/12/12 05:41:54;;;;;;;71.22;26.73;;;;;;;0.02;67.05;98595.09;5141320;28;20058;-71
2022/12/12 05:44:44;;;;;;;75.03;27.88;;;;;;;0.03;67.30;98596.75;5141290;28;20138;-70
2022/12/12 05:47:34;;;;;;;80.18;27.13;;;;;;;0.03;66.94;98585.50;5130913;28;20523;-71
2022/12/12 05:50:24;;;;;;;72.07;26.15;;;;;;;-0.22;67.11;98588.66;5137657;28;20114;-69
2022/12/12 05:53:14;;;;;;;73.93;27.13;;;;;;;-0.04;67.18;98593.66;5125874;28;20117;-70
2022/12/12 05:56:05;;;;;;;73.32;26.40;;;;;;;-0.05;67.08;98602.41;5134373;28;20521;-69
2022/12/12 05:58:55;;;;;;;65.70;25.83;;;;;;;-0.10;66.99;98586.22;5140452;28;20058;-70
2022/12/12 06:01:45;;;;;;;68.65;24.95;;;;;;;-0.14;67.21;98589.91;5138352;28;20057;-70
2022/12/12 06:04:35;;;;;;;72.10;26.35;;;;;;;0.10;66.59;98608.53;5128436;28;20121;-69
2022/12/12 06:07:25;;;;;;;69.57;25.75;;;;;;;-0.01;65.69;98590.03;5146003;23;20055;-70
2022/12/12 06:10:15;;;;;;;74.38;25.90;;;;;;;-0.18;66.69;98564.94;5097295;29;20052;-69
2022/12/12 06:13:05;;;;;;;62.15;25.08;;;;;;;0.01;66.49;98611.66;5098792;29;20056;-70
2022/12/12 06:15:56;;;;;;;70.72;25.50;;;;;;;-0.09;66.49;98600.91;5098949;29;20571;-69
2022/12/12 06:18:51;;;;;;;68.43;25.15;;;;;;;-0.07;66.30;98606.84;5101232;29;20062;-70
2022/12/12 06:21:42;;;;;;;64.70;23.42;;;;;;;-0.20;66.72;98595.44;5086003;29;20048;-67
2022/12/12 06:24:32;;;;;;;62.47;25.13;;;;;;;-0.09;66.63;98619.16;5098893;29;20086;-69
2022/12/12 06:27:24;;;;;;;60.90;22.95;;;;;;;-0.11;65.90;98615.78;5110611;29;20810;-69
2022/12/12 06:30:15;;;;;;;62.65;23.45;;;;;;;-0.09;65.87;98618.31;5097510;29;20070;-67
2022/12/12 06:33:05;;;;;;;63.05;22.90;;;;;;;-0.21;66.49;98619.84;5098396;29;20054;-67
2022/12/12 06:36:15;;;;;;;69.93;22.92;;;;;;;-0.20;66.06;98616.28;5101952;29;20055;-71
2022/12/12 06:39:05;;;;;;;60.50;22.70;;;;;;;-0.15;65.39;98621.25;5099340;29;20130;-66
2022/12/12 06:41:55;;;;;;;61.78;23.05;;;;;;;-0.22;65.28;98627.75;5103251;29;20054;-68
2022/12/12 06:44:46;;;;;;;59.47;23.58;;;;;;;-0.19;65.49;98631.03;5095514;29;20415;-69
2022/12/12 06:47:36;;;;;;;60.70;23.80;;;;;;;-0.36;66.04;98613.72;5101703;29;20088;-69
2022/12/12 06:50:26;;;;;;;60.90;22.95;;;;;;;-0.31;65.92;98609.09;5117235;29;20425;-70
2022/12/12 06:53:16;;;;;;;62.90;23.05;;;;;;;-0.19;66.01;98628.41;5113178;29;20070;-69
2022/12/12 06:56:09;;;;;;;61.17;22.23;;;;;;;-0.28;66.24;98628.91;5105963;29;20426;-69
2022/12/12 06:58:59;;;;;;;64.55;24.13;;;;;;;-0.34;65.97;98613.63;5103628;29;20525;-69
2022/12/12 07:01:49;;;;;;;59.70;23.63;;;;;;;-0.26;65.38;98627.09;5106022;29;20422;-70
2022/12/12 07:04:39;;;;;;;61.55;23.00;;;;;;;-0.19;66.05;98633.63;5108260;28;20059;-69
2022/12/12 07:07:29;;;;;;;66.20;23.92;;;;;;;-0.18;66.85;98635.31;5108605;29;20061;-69
2022/12/12 07:10:19;;;;;;;58.55;23.35;;;;;;;-0.07;66.34;98639.91;5115644;29;20118;-69
2022/12/12 07:13:11;;;;;;;55.30;21.48;;;;;;;-0.19;66.19;98633.63;5106423;29;20054;-69
2022/12/12 07:16:01;;;;;;;60.60;22.77;;;;;;;-0.34;66.12;98634.47;5111769;29;20425;-69
2022/12/12 07:18:51;;;;;;;57.03;22.77;;;;;;;-0.29;66.53;98643.72;5104107;29;20494;-69
2022/12/12 07:21:41;;;;;;;65.65;23.33;;;;;;;-0.24;66.69;98633.88;5103304;29;20047;-70
2022/12/12 07:24:32;;;;;;;60.35;22.02;;;;;;;-0.18;66.47;98647.50;5116826;29;20054;-70
2022/12/12 07:27:21;;;;;;;60.80;22.45;;;;;;;-0.24;66.76;98649.50;5114081;29;20120;-70
2022/12/12 07:30:12;;;;;;;62.58;22.92;;;;;;;-0.33;67.12;98652.63;5093865;29;20336;-70
2022/12/12 07:33:02;;;;;;;65.53;23.33;;;;;;;-0.23;65.95;98658.19;5104677;29;20052;-68
2022/12/12 07:35:58;;;;;;;55.38;22.20;;;;;;;-0.05;66.21;98656.31;5108513;29;20630;-70
2022/12/12 07:38:48;;;;;;;58.38;23.55;;;;;;;-0.28;66.84;98660.19;5113041;29;20051;-70
2022/12/12 07:41:39;;;;;;;63.35;24.70;;;;;;;-0.25;65.72;98658.25;5108754;29;20511;-69
2022/12/12 07:44:29;;;;;;;59.58;22.90;;;;;;;-0.21;65.15;98658.09;5118281;29;20424;-70
2022/12/12 07:47:19;;;;;;;57.05;23.45;;;;;;;-0.32;65.64;98643.03;5117499;29;20149;-66
2022/12/12 07:50:10;;;;;;;63.70;23.55;;;;;;;-0.07;66.24;98677.22;5103100;29;20126;-69
2022/12/12 07:53:00;;;;;;;65.53;25.20;;;;;;;0.01;65.94;98682.03;5114490;29;20051;-69
2022/12/12 07:55:50;;;;;;;63.47;23.00;;;;;;;0.01;65.67;98678.59;5093356;29;20067;-67
2022/12/12 07:58:40;;;;;;;64.70;24.95;;;;;;;-0.11;64.88;98674.88;5090640;29;20055;-67
2022/12/12 08:01:30;;;;;;;63.03;24.25;;;;;;;-0.26;65.46;98672.22;5088580;29;20642;-67
2022/12/12 08:04:21;;;;;;;63.45;24.08;;;;;;;-0.22;66.02;98680.69;5093838;29;20432;-66
2022/12/12 08:07:11;;;;;;;66.88;23.75;;;;;;;0.01;65.77;98684.63;5089900;29;20110;-66
2022/12/12 08:10:03;;;;;;;71.40;25.95;;;;;;;0.08;65.03;98685.97;5088957;29;20047;-69
2022/12/12 08:12:53;;;;;;;63.03;25.25;;;;;;;-0.15;64.97;98668.16;5080033;29;20539;-70
2022/12/12 08:15:43;;;;;;;65.05;25.83;;;;;;;0.06;64.87;98684.38;5073342;29;20117;-69
2022/12/12 08:18:34;;;;;;;66.25;24.10;;;;;;;0.08;64.19;98687.75;5077928;29;20431;-68
2022/12/12 08:21:25;;;;;;;64.22;24.05;;;;;;;0.02;65.20;98677.66;5085796;29;20431;-65
2022/12/12 08:24:15;;;;;;;64.13;24.90;;;;;;;0.15;64.70;98695.13;5090438;29;20071;-67
2022/12/12 08:27:06;;;;;;;63.88;22.55;;;;;;;-0.02;64.64;98662.19;5088845;29;20059;-68
2022/12/12 08:30:05;;;;;;;64.63;24.90;;;;;;;0.25;64.54;98695.44;5090724;29;20059;-67
2022/12/12 08:32:55;;;;;;;59.00;24.27;;;;;;;0.30;65.15;98697.78;5090721;29;20511;-67
2022/12/12 08:35:45;;;;;;;65.68;25.42;;;;;;;0.42;64.58;98703.16;5094146;29;20505;-68
2022/12/12 08:38:37;;;;;;;67.43;26.85;;;;;;;0.35;64.25;98701.81;5092470;29;20508;-68
2022/12/12 08:41:28;;;;;;;60.60;25.30;;;;;;;0.36;64.05;98713.94;5095055;29;20210;-67
2022/12/12 08:44:19;;;;;;;64.53;25.45;;;;;;;0.44;64.84;98716.13;5075891;29;20075;-67
2022/12/12 08:47:09;;;;;;;70.90;26.98;;;;;;;0.50;64.85;98720.13;5080535;29;20066;-68
2022/12/12 08:49:59;;;;;;;68.13;26.70;;;;;;;0.55;64.04;98723.34;5082039;29;20056;-68
2022/12/12 08:52:50;;;;;;;67.10;25.05;;;;;;;0.61;64.59;98707.34;5081386;29;20585;-69
2022/12/12 08:55:40;;;;;;;66.82;24.98;;;;;;;0.57;62.87;98700.63;5090291;29;20063;-67
2022/12/12 08:58:30;;;;;;;67.32;26.40;;;;;;;0.62;63.12;98702.00;5101535;28;20059;-68
2022/12/12 09:01:23;;;;;;;60.63;24.90;;;;;;;0.77;62.19;98718.56;5091276;29;20059;-69
2022/12/12 09:04:13;;;;;;;64.20;26.92;;;;;;;0.85;63.25;98721.56;5094253;29;20068;-68
2022/12/12 09:07:05;;;;;;;68.32;28.58;;;;;;;0.68;62.45;98724.31;5104453;28;20142;-69
2022/12/12 09:09:58;;;;;;;152.67;46.33;;;;;;;0.60;63.87;98719.53;5085804;29;20047;-68
2022/12/12 09:12:48;;;;;;;69.05;27.52;;;;;;;0.72;62.41;98723.19;5082292;29;20079;-68
2022/12/12 09:15:38;;;;;;;82.30;31.15;;;;;;;0.76;62.13;98731.69;5082254;29;20142;-69
2022/12/12 09:18:28;;;;;;;79.07;27.17;;;;;;;0.69;62.67;98726.81;5083440;29;20151;-68
2022/12/12 09:21:19;;;;;;;67.78;26.42;;;;;;;0.80;63.05;98717.56;5088342;29;20539;-69
2022/12/12 09:24:09;;;;;;;63.75;26.08;;;;;;;0.66;63.61;98719.19;5085578;29;20421;-69
2022/12/12 09:26:59;;;;;;;60.63;25.50;;;;;;;0.85;63.58;98737.22;5087968;29;20070;-70
2022/12/12 09:29:49;;;;;;;78.05;36.67;;;;;;;0.70;62.99;98718.09;5093048;29;20082;-70
2022/12/12 09:32:40;;;;;;;60.83;26.00;;;;;;;0.71;63.25;98742.41;5089575;29;20063;-70
2022/12/12 09:35:31;;;;;;;59.13;24.10;;;;;;;0.97;62.60;98745.28;5088884;29;20371;-69
2022/12/12 09:38:22;;;;;;;61.58;25.45;;;;;;;0.90;63.36;98735.19;5083635;29;20060;-68
2022/12/12 09:41:23;;;;;;;66.82;26.30;;;;;;;1.04;62.04;98749.22;5077864;29;20063;-68
2022/12/12 09:44:18;;;;;;;63.90;25.20;;;;;;;0.96;62.70;98747.06;5076352;29;20142;-69
2022/12/12 09:47:30;;;;;;;62.65;25.42;;;;;;;0.89;62.96;98736.13;5081512;29;20056;-68
2022/12/12 09:50:30;;;;;;;80.80;27.10;;;;;;;1.06;61.97;98742.97;5074561;29;20149;-68
2022/12/12 09:53:24;;;;;;;64.40;25.42;;;;;;;1.10;62.14;98722.75;5096856;28;20646;-68
2022/12/12 09:56:23;;;;;;;65.72;26.92;;;;;;;0.83;63.25;98696.47;5072909;29;21177;-68
2022/12/12 09:59:26;;;;;;;66.57;25.83;;;;;;;0.93;62.58;98723.75;5079701;29;20067;-68
2022/12/12 10:02:38;;;;;;;64.30;25.85;;;;;;;1.10;61.36;98730.56;5084528;29;20565;-68
2022/12/12 10:05:44;;;;;;;64.28;26.33;;;;;;;1.12;62.18;98723.47;5092023;29;20134;-68
2022/12/12 10:08:47;;;;;;;63.10;26.10;;;;;;;1.11;61.23;98725.25;5090417;29;20534;-68
2022/12/12 10:11:50;;;;;;;73.45;27.80;;;;;;;1.20;61.80;98720.41;5088385;29;20060;-68
2022/12/12 10:14:44;;;;;;;75.90;27.33;;;;;;;1.27;60.88;98696.44;5088631;29;20067;-67
2022/12/12 10:17:41;;;;;;;62.83;25.45;;;;;;;1.32;61.65;98712.66;5086945;29;20274;-67
2022/12/12 10:20:34;;;;;;;76.80;28.95;;;;;;;1.40;62.42;98713.06;5086531;29;20481;-68
2022/12/12 10:23:45;;;;;;;;;;;;;;;1.45;62.36;98714.53;5094662;29;20142;-68
2022/12/12 10:26:35;;;;;;;68.90;25.67;;;;;;;1.38;62.04;98709.69;5085745;29;19977;-68
2022/12/12 10:29:26;;;;;;;67.10;27.20;;;;;;;1.37;61.71;98707.19;5081459;29;20528;-68
2022/12/12 10:32:24;;;;;;;66.22;26.83;;;;;;;1.23;61.63;98715.03;5079728;29;20062;-68
2022/12/12 10:35:26;;;;;;;73.13;27.40;;;;;;;1.47;60.63;98710.91;5077567;29;20055;-68
2022/12/12 10:38:25;;;;;;;72.10;26.95;;;;;;;1.43;60.50;98705.97;5079862;29;20726;-69
2022/12/12 10:41:51;;;;;;;64.80;28.00;;;;;;;1.27;61.22;98725.19;5093567;28;20056;-70
2022/12/12 10:45:05;;;;;;;68.25;27.77;;;;;;;1.27;60.91;98712.13;5059673;29;20043;-67
2022/12/12 10:47:55;;;;;;;68.10;27.13;;;;;;;1.09;61.17;98708.84;5085449;29;20070;-69
2022/12/12 10:50:49;;;;;;;71.85;28.23;;;;;;;0.78;62.26;98725.47;5083138;29;20063;-71
2022/12/12 10:53:41;;;;;;;77.38;28.65;;;;;;;1.47;61.02;98718.75;5084714;29;20139;-67
2022/12/12 10:56:31;;;;;;;91.32;31.98;;;;;;;1.27;61.08;98714.72;5091349;29;20056;-68
2022/12/12 10:59:22;;;;;;;70.38;26.40;;;;;;;1.05;61.20;98711.72;5109407;28;20082;-67
2022/12/12 11:02:21;;;;;;;63.72;27.42;;;;;;;1.43;60.73;98719.03;5089046;29;20143;-69
2022/12/12 11:05:20;;;;;;;76.65;27.48;;;;;;;1.29;60.89;98714.63;5110883;29;20059;-68
2022/12/12 11:08:17;;;;;;;71.72;27.50;;;;;;;1.29;61.59;98705.03;5110970;29;20153;-69
2022/12/12 11:11:26;;;;;;;61.83;26.10;;;;;;;1.37;62.00;98712.41;5095034;29;20055;-69
2022/12/12 11:14:28;;;;;;;63.78;25.83;;;;;;;1.35;62.66;98717.72;5113875;29;20118;-68
2022/12/12 11:17:32;;;;;;;64.72;26.48;;;;;;;1.47;61.74;98710.91;5112854;29;20058;-67
2022/12/12 11:20:22;;;;;;;67.10;27.83;;;;;;;1.43;61.73;98703.38;5103544;29;20667;-73
2022/12/12 11:23:18;;;;;;;69.13;26.80;;;;;;;1.60;60.02;98708.38;5115932;28;20059;-70
2022/12/12 11:26:16;;;;;;;63.83;25.42;;;;;;;1.48;60.23;98690.84;5111360;29;20130;-69
2022/12/12 11:29:22;;;;;;;62.88;25.10;;;;;;;1.42;61.20;98699.88;5109203;29;20058;-70
2022/12/12 11:32:24;;;;;;;72.93;28.45;;;;;;;1.56;61.25;98704.28;5086206;29;20062;-70
2022/12/12 11:35:26;;;;;;;65.63;26.33;;;;;;;1.64;59.68;98691.56;5103775;29;20510;-71
2022/12/12 11:38:26;;;;;;;67.45;27.15;;;;;;;1.54;60.13;98693.91;5098844;29;20269;-69
2022/12/12 11:41:17;;;;;;;66.25;25.67;;;;;;;1.55;61.15;98694.75;5094916;29;20073;-73
2022/12/12 11:44:24;;;;;;;64.90;25.88;;;;;;;1.60;60.84;98698.78;5113659;29;20537;-72
2022/12/12 11:47:17;;;;;;;65.38;26.58;;;;;;;1.58;60.81;98702.41;5105317;29;20445;-68
2022/12/12 11:50:27;;;;;;;64.63;26.40;;;;;;;1.54;60.89;98687.84;5108144;28;20155;-72
2022/12/12 11:53:18;;;;;;;62.38;25.25;;;;;;;1.48;59.88;98690.84;5090766;28;20302;-71
2022/12/12 11:56:27;;;;;;;66.95;26.92;;;;;;;1.43;61.94;98695.53;5111068;29;20153;-71
2022/12/12 11:59:57;;;;;;;71.85;26.67;;;;;;;1.56;60.23;98696.44;5119283;29;20058;-70
2022/12/12 12:03:25;;;;;;;66.75;25.55;;;;;;;1.48;60.44;98693.47;5090802;29;20436;-70
2022/12/12 12:06:38;;;;;;;63.13;26.45;;;;;;;1.43;59.85;98656.34;5114441;29;20074;-70
2022/12/12 12:10:01;;;;;;;59.20;24.00;;;;;;;1.58;59.66;98660.59;5096370;29;20090;-70
2022/12/12 12:13:16;;;;;;;64.38;25.40;;;;;;;1.82;59.90;98677.38;5087261;29;20101;-69
2022/12/12 12:16:23;;;;;;;62.15;25.70;;;;;;;2.04;58.76;98676.81;5089329;29;20059;-67
2022/12/12 12:19:20;;;;;;;66.85;27.00;;;;;;;1.69;59.51;98679.06;5096336;29;20491;-66
2022/12/12 12:22:19;;;;;;;64.50;26.88;;;;;;;1.59;59.06;98646.59;5087374;29;20054;-69
2022/12/12 12:25:28;;;;;;;68.45;26.95;;;;;;;1.78;60.51;98670.63;5090447;29;20546;-67
2022/12/12 12:28:44;;;;;;;64.35;27.23;;;;;;;2.10;58.51;98675.59;5094889;29;20059;-71
2022/12/12 12:32:08;;;;;;;67.30;27.52;;;;;;;2.13;58.18;98677.19;5092929;29;20425;-67
2022/12/12 12:35:28;;;;;;;63.42;26.30;;;;;;;1.76;59.78;98669.91;5099560;29;20059;-67
2022/12/12 12:38:24;;;;;;;63.50;26.65;;;;;;;1.88;59.67;98661.28;5093188;29;20058;-67
2022/12/12 12:41:46;;;;;;;67.47;26.58;;;;;;;1.82;60.19;98661.69;5088961;29;20070;-69
2022/12/12 12:44:45;;;;;;;66.07;27.90;;;;;;;1.78;60.46;98654.13;5089648;29;20082;-69
2022/12/12 12:47:51;;;;;;;71.43;26.55;;;;;;;1.91;60.13;98659.41;5092807;29;20137;-68
2022/12/12 12:50:50;;;;;;;62.45;25.80;;;;;;;1.84;58.98;98651.94;5091794;29;20206;-71
2022/12/12 12:53:59;;;;;;;63.55;27.30;;;;;;;1.98;59.99;98652.84;5087022;29;20048;-71
2022/12/12 12:56:59;;;;;;;69.97;25.45;;;;;;;1.94;59.39;98644.38;5091516;29;20410;-70
2022/12/12 12:59:54;;;;;;;65.05;25.58;;;;;;;2.08;58.59;98661.78;5083334;29;20506;-66
2022/12/12 13:02:56;;;;;;;71.50;26.50;;;;;;;2.07;58.89;98660.09;5079546;29;20059;-67
2022/12/12 13:06:00;;;;;;;59.83;24.35;;;;;;;2.05;58.52;98643.66;5078912;29;20099;-71
2022/12/12 13:09:02;;;;;;;65.43;24.98;;;;;;;2.11;58.02;98640.66;5080617;29;20538;-69
2022/12/12 13:12:06;;;;;;;59.08;24.48;;;;;;;1.86;58.86;98637.03;5078617;29;20055;-68
2022/12/12 13:15:22;;;;;;;57.40;24.83;;;;;;;1.88;58.02;98648.19;5094123;28;20058;-68
2022/12/12 13:18:15;;;;;;;55.47;22.63;;;;;;;1.74;58.38;98643.03;5079591;29;20059;-68
2022/12/12 13:21:19;;;;;;;60.35;22.55;;;;;;;1.74;57.89;98640.41;5078037;29;20079;-68
2022/12/12 13:24:52;;;;;;;50.20;22.60;;;;;;;1.95;58.28;98642.59;5084572;29;20074;-69
2022/12/12 13:27:56;;;;;;;52.13;22.02;;;;;;;1.98;57.24;98630.16;5081017;29;20513;-68
2022/12/12 13:31:15;;;;;;;56.30;23.30;;;;;;;2.14;58.13;98644.88;5086300;28;20443;-68
2022/12/12 13:34:10;;;;;;;54.08;22.00;;;;;;;2.18;58.41;98646.34;5069105;29;20063;-71
2022/12/12 13:37:04;;;;;;;59.58;22.70;;;;;;;2.05;58.00;98652.38;5081808;29;20557;-70
2022/12/12 13:40:06;;;;;;;54.03;22.67;;;;;;;1.86;58.74;98629.19;5087127;29;20082;-69
2022/12/12 13:42:59;;;;;;;44.90;19.08;;;;;;;2.10;57.66;98647.66;5067053;29;20067;-68
2022/12/12 13:46:22;;;;;;;46.22;20.55;;;;;;;2.01;57.55;98644.81;5081722;29;20740;-68
2022/12/12 13:49:23;;;;;;;53.65;22.77;;;;;;;1.88;57.50;98623.84;5080014;29;20526;-69
2022/12/12 13:52:25;;;;;;;54.72;22.63;;;;;;;1.87;58.70;98632.63;5084956;29;20445;-68